Home > Products > Valid Products > TAF

000
FTUS43 KARX 251611 AAC
TAFRST
TAF AMD
KRST 251611Z 2516/2612 11011KT 6SM BR VCSH BKN011
     FM252000 15011KT P6SM BKN035
     FM260100 15006KT P6SM SCT030
     FM260600 18006KT 4SM BR SCT015
      TEMPO 2609/2612 2SM BR BKN007=



000
FTUS43 KARX 251130
TAFLSE
TAF
KLSE 251130Z 2512/2612 12007KT P6SM BKN250
     FM251700 13010KT P6SM BKN040
      TEMPO 2517/2520 4SM -TSRA BKN025CB
     FM252000 16008KT P6SM VCSH BKN035
     FM260100 14006KT P6SM SCT040
     FM260800 17005KT 3SM BR SCT015=



000
FTUS43 KARX 251130
TAFRST
TAF
KRST 251130Z 2512/2612 12007KT P6SM BKN250
     FM251600 14013G21KT P6SM BKN035
      TEMPO 2516/2520 3SM TSRA BKN020CB
     FM252000 15011KT P6SM BKN030
     FM260100 15006KT P6SM SCT030
     FM260600 18006KT 4SM BR SCT015
      TEMPO 2609/2612 2SM BR BKN007=



000
FTUS43 KARX 241724
TAFLSE
TAF
KLSE 241724Z 2418/2518 19007KT P6SM SCT035 BKN150
     FM250100 16004KT P6SM FEW050 SCT150
     FM251400 13006KT P6SM VCTS SCT030CB BKN070=



000
FTUS43 KARX 241724
TAFRST
TAF
KRST 241724Z 2418/2518 21007KT P6SM SCT030 BKN150
     FM250000 18005KT P6SM FEW050 SCT150
     FM251100 14007KT 6SM BR VCTS SCT025CB BKN060=



000
FTUS43 KARX 240520
TAFRST
TAF
KRST 240520Z 2406/2506 20010KT P6SM BKN100
     FM241200 22006KT P6SM SCT015 BKN035
      TEMPO 2412/2416 5SM BR BKN015
     FM241600 26009KT P6SM BKN040
     FM242300 17005KT P6SM SCT050=



000
FTUS43 KARX 240100 AAA
TAFLSE
TAF AMD
KLSE 240100Z 2401/2424 22010KT P6SM SCT050 BKN200
     FM240500 16006KT P6SM -SHRA BKN050 OVC100
     FM241200 18007KT P6SM OVC025
     FM241700 24008KT P6SM BKN050=



000
FTUS43 KARX 240032 AAA
TAFRST
TAF AMD
KRST 240032Z 2401/2424 19012KT P6SM SCT060 BKN100
     FM240500 20012KT P6SM -SHRA BKN050 OVC080
     FM241100 22006KT 5SM BR SCT008 OVC015
     FM241600 26009KT P6SM BKN040=



000
FTUS43 KARX 231735
TAFRST
TAF
KRST 231735Z 2318/2418 19018G27KT P6SM BKN035 OVC220
     FM232200 19018G26KT P6SM VCSH BKN040 OVC220
      TEMPO 2322/2402 6SM TSRA OVC035CB
     FM240400 19010KT P6SM -SHRA VCTS OVC018CB
     FM241100 22006KT 5SM BR SCT008 OVC015
     FM241600 22009KT P6SM BKN040=



000
FTUS43 KARX 231735
TAFLSE
TAF
KLSE 231735Z 2318/2418 17013G23KT P6SM SCT050 BKN250
     FM240100 18009KT P6SM VCSH SCT050 BKN200
     FM240500 15006KT P6SM -SHRA BKN050 OVC100
     FM241200 15007KT P6SM OVC025=



000
FTUS43 KARX 231122
TAFLSE
TAF
KLSE 231122Z 2312/2412 16005KT P6SM BKN250 WS020/29035KT
     FM231500 17012G20KT P6SM SCT050 BKN140
     FM232300 17010KT P6SM BKN060 OVC120
     FM240400 18008KT P6SM VCSH BKN050=



000
FTUS43 KARX 231122
TAFRST
TAF
KRST 231122Z 2312/2412 18014G23KT P6SM BKN200
     FM231600 19018G27KT P6SM VCSH SCT040 BKN080
     FM231900 19014G24KT P6SM BKN100
     FM240100 20012KT P6SM VCTS BKN050CB OVC100
     FM240500 22009KT P6SM VCSH BKN025=



000
FTUS43 KARX 230520
TAFRST
TAF
KRST 230520Z 2306/2406 18010KT P6SM SCT250 WS015/19045KT
     FM231300 18016G24KT P6SM SCT040 SCT120 BKN250
     FM231700 19020G28KT P6SM VCSH SCT050 BKN120
     FM232300 18014KT P6SM VCSH BKN050 OVC100=



000
FTUS43 KARX 230520
TAFLSE
TAF
KLSE 230520Z 2306/2406 15005KT P6SM FEW250 WS020/29035KT
     FM231500 17012G20KT P6SM SCT050 SCT250
     FM231800 17015G24KT P6SM SCT060 BKN250
     FM232300 17010KT P6SM BKN060 OVC120=



    US Dept of Commerce
    National Oceanic and Atmospheric Administration
    National Weather Service
    1325 East West Highway
    Silver Spring, MD 20910
    Page Author: NWS Internet Services Team
Disclaimer
Information Quality
Credits
Glossary
Privacy Policy
Freedom of Information Act (FOIA)
About Us
Career Opportunities